Mercury, NV

1:29 AM PST on December 27, 2014 (GMT -0800)
MesoWest Mercury NV US ARL SORD | Change Station
CLOSE
Current Station
Personal Weather Station
Location: Mercury, NV
Elevation: 3678 ft
Nearby Weather Stations
Active Advisory: Hard Freeze Warning

Elev 3678 ft 36.66 °N, 116.00 °W | Updated 44 minutes ago

Clear
Clear
30 °F
Feels Like 22 °F
N
9
Wind Variable Wind from NNE
Gusts 15.0 mph

Today
High -- | Low -- °F
--% Chance of Precip.
Yesterday
High -- | Low -- °F
Precip. -- in
6:55 AM 4:35 PM
Waxing Crescent, 34% visible
Pressure 30.27 in
Visibility 10.0 miles
Clouds Clear
Windchill 22 °F
Dew Point 9 °F
Humidity 40%
Rainfall 0.00 in
Snow Depth Not available.
UV 0 out of 12
Pollen 2.20 out of 12
Air Quality Not available.
Flu Activity Not available.
METAR KDRA 270852Z AUTO 04008KT 10SM CLR 00/M12 A3028 RMK AO2 SLP251 T00001122 51008 $

More Conditions Fewer Conditions

Pressure 30.27 in
Visibility 10.0 miles
Clouds Clear
Windchill 22 °F
Dew Point 9 °F
Humidity 40%
Rainfall 0.00 in
Snow Depth Not available.
UV 0 out of 12
Pollen 2.20 out of 12
Air Quality Not available.
Flu Activity Not available.
METAR KDRA 270852Z AUTO 04008KT 10SM CLR 00/M12 A3028 RMK AO2 SLP251 T00001122 51008 $

More Conditions Fewer Conditions

10-Day Weather Forecast

Almanac

Astronomy

Dec. 27, 2014 Rise Set
Actual Time
Civil Twilight
Nautical Twilight
Astronomical Twilight
Moon
Length of Visible Light
Length of Day
Tomorrow will be .
, % of the Moon is Illuminated

Today's Extremes

State Highs State Lows

Community

WunderPhotos

Upload Photos

1,780,869 photos uploaded!

WunderBlogs® & News

Nearby

Air Quality

  Air Quality AQ Index Pollutant
Not available.

Snow Depth

Station Depth Elevation

Earthquake Activity

City Distance Mag. Time & Date
Minimum magnitude displayed is 2.5.

Coastal Water Temperatures

Place Temperature

Nearby Weather Stations